Time;durP1;ratioP1;P1;durP2;ratioP2;P2;SDS_P1;SDS_P2;PMS_P1;PMS_P2;Temp;Humidity;BMP_temperature;BMP_pressure;BME280_temperature;BME280_humidity;BME280_pressure;Samples;Min_cycle;Max_cycle;Signal;HPM_P1;HPM_P2
2022/04/24 00:00:38;;;;;;;0.30;0.20;;;;;;;12.72;75.81;98465.56;5074670;28;20454;-54
2022/04/24 00:03:05;;;;;;;0.30;0.20;;;;;;;12.61;75.49;98466.28;5062042;28;20457;-54
2022/04/24 00:05:32;;;;;;;0.30;0.20;;;;;;;12.68;74.79;98458.72;5057351;28;20454;-53
2022/04/24 00:07:58;;;;;;;0.30;0.20;;;;;;;12.69;74.90;98465.75;5060554;28;20466;-54
2022/04/24 00:10:25;;;;;;;0.30;0.20;;;;;;;12.67;74.55;98451.69;5074712;28;20529;-54
2022/04/24 00:12:52;;;;;;;5.70;0.60;;;;;;;12.71;74.45;98454.03;5056200;28;20934;-54
2022/04/24 00:15:18;;;;;;;0.30;0.30;;;;;;;12.68;74.08;98456.91;5066746;28;20500;-54
2022/04/24 00:17:45;;;;;;;0.40;0.30;;;;;;;12.52;75.01;98448.22;5074198;28;20524;-54
2022/04/24 00:20:11;;;;;;;0.30;0.20;;;;;;;12.39;75.68;98453.50;5074341;28;20817;-54
2022/04/24 00:22:38;;;;;;;0.30;0.20;;;;;;;12.33;75.99;98453.03;5073849;28;20497;-54
2022/04/24 00:25:05;;;;;;;0.30;0.20;;;;;;;12.10;77.36;98447.41;5064123;28;20935;-54
2022/04/24 00:27:32;;;;;;;0.30;0.20;;;;;;;12.22;76.97;98442.25;5072772;28;20478;-54
2022/04/24 00:29:59;;;;;;;0.60;0.60;;;;;;;12.09;77.88;98445.72;5066220;28;20485;-54
2022/04/24 00:32:25;;;;;;;0.30;0.20;;;;;;;11.95;78.11;98443.06;5074140;28;20461;-54
2022/04/24 00:34:52;;;;;;;0.30;0.20;;;;;;;11.95;78.18;98448.41;5071232;28;20450;-54
2022/04/24 00:37:18;;;;;;;0.90;0.90;;;;;;;11.96;78.24;98442.13;5060838;28;20523;-54
2022/04/24 00:39:45;;;;;;;0.30;0.20;;;;;;;11.99;77.98;98447.25;5074318;28;20446;-54
2022/04/24 00:42:12;;;;;;;0.40;0.37;;;;;;;12.19;76.94;98439.75;5066843;28;20459;-55
2022/04/24 00:44:38;;;;;;;0.30;0.20;;;;;;;12.07;77.43;98438.78;5046389;28;20597;-54
2022/04/24 00:47:20;;;;;;;0.40;0.40;;;;;;;12.09;77.12;98439.53;5071710;28;20469;-55
2022/04/24 00:49:46;;;;;;;0.30;0.20;;;;;;;12.11;77.02;98443.78;5073486;28;20489;-54
2022/04/24 00:52:13;;;;;;;0.30;0.20;;;;;;;12.19;75.91;98440.63;5069096;28;20451;-54
2022/04/24 00:54:41;;;;;;;0.40;0.30;;;;;;;12.25;75.64;98432.25;5053123;28;20451;-55
2022/04/24 00:57:09;;;;;;;3.40;1.60;;;;;;;12.16;75.99;98430.16;5054536;28;20520;-54
2022/04/24 00:59:39;;;;;;;0.30;0.20;;;;;;;12.38;74.59;98430.47;5065509;28;20495;-54
2022/04/24 01:02:07;;;;;;;0.30;0.20;;;;;;;12.42;74.52;98429.31;5064053;28;20532;-55
2022/04/24 01:04:36;;;;;;;0.30;0.20;;;;;;;12.49;72.89;98435.13;5058000;28;20474;-54
2022/04/24 01:07:04;;;;;;;0.30;0.20;;;;;;;12.57;73.40;98435.44;5069049;28;20475;-54
2022/04/24 01:09:35;;;;;;;0.50;0.50;;;;;;;12.54;72.68;98430.31;5068114;28;20487;-54
2022/04/24 01:12:03;;;;;;;0.30;0.20;;;;;;;12.54;72.45;98427.66;5073335;28;20896;-54
2022/04/24 01:14:30;;;;;;;0.30;0.20;;;;;;;12.58;72.07;98429.16;5063244;28;20951;-54
2022/04/24 01:16:59;;;;;;;0.30;0.20;;;;;;;12.63;72.32;98436.88;5064492;28;20592;-54
2022/04/24 01:19:26;;;;;;;0.30;0.20;;;;;;;12.60;73.01;98432.56;5058439;28;20446;-54
2022/04/24 01:21:54;;;;;;;0.30;0.20;;;;;;;12.55;71.55;98426.69;5072985;28;20485;-54
2022/04/24 01:24:27;;;;;;;0.30;0.20;;;;;;;12.63;71.37;98434.19;5065202;28;20504;-55
2022/04/24 01:26:54;;;;;;;0.30;0.20;;;;;;;12.64;70.16;98425.25;5072865;28;20500;-54
2022/04/24 01:29:21;;;;;;;0.40;0.30;;;;;;;12.67;69.50;98425.88;5072868;28;20903;-54
2022/04/24 01:31:50;;;;;;;0.30;0.20;;;;;;;12.75;68.58;98426.25;5072673;28;20890;-55
2022/04/24 01:34:18;;;;;;;0.50;0.50;;;;;;;12.78;68.46;98417.16;5060502;28;20502;-55
2022/04/24 01:36:45;;;;;;;0.40;0.30;;;;;;;12.80;67.57;98417.06;5062393;28;20862;-54
2022/04/24 01:39:12;;;;;;;0.30;0.20;;;;;;;12.89;67.34;98422.63;5073201;28;20816;-54
2022/04/24 01:41:38;;;;;;;0.50;0.50;;;;;;;12.94;67.25;98423.16;5060100;28;20455;-55
2022/04/24 01:44:05;;;;;;;0.30;0.20;;;;;;;12.99;66.18;98428.16;5070451;28;20453;-54
2022/04/24 01:46:32;;;;;;;0.30;0.20;;;;;;;12.96;66.26;98423.91;5068096;28;20488;-55
2022/04/24 01:48:58;;;;;;;0.30;0.20;;;;;;;13.02;65.77;98417.31;5072781;28;20454;-55
2022/04/24 01:51:25;;;;;;;0.30;0.20;;;;;;;12.87;65.02;98421.84;5069920;28;20487;-54
2022/04/24 01:53:52;;;;;;;0.30;0.20;;;;;;;12.84;65.82;98421.22;5063994;28;20902;-54
2022/04/24 01:56:18;;;;;;;0.30;0.20;;;;;;;12.87;65.18;98416.53;5054593;28;20492;-55
2022/04/24 01:58:45;;;;;;;0.30;0.20;;;;;;;12.90;64.73;98416.34;5072290;28;20473;-56
2022/04/24 02:01:12;;;;;;;0.30;0.20;;;;;;;12.91;65.18;98406.53;5071596;28;20445;-54
2022/04/24 02:03:39;;;;;;;0.30;0.20;;;;;;;12.95;65.14;98413.34;5054999;28;20455;-56
2022/04/24 02:06:06;;;;;;;0.30;0.20;;;;;;;12.91;65.27;98415.38;5068556;28;20545;-54
2022/04/24 02:08:36;;;;;;;0.30;0.20;;;;;;;12.99;64.52;98406.84;5062501;28;20472;-55
2022/04/24 02:11:06;;;;;;;0.30;0.20;;;;;;;13.11;63.77;98405.13;5065561;28;20486;-55
2022/04/24 02:13:34;;;;;;;0.30;0.20;;;;;;;13.19;64.01;98406.34;5066748;28;21015;-54
2022/04/24 02:16:01;;;;;;;0.30;0.20;;;;;;;12.96;63.47;98397.25;5069737;28;20881;-55
2022/04/24 02:18:28;;;;;;;0.30;0.20;;;;;;;12.89;63.77;98403.13;5072415;28;20520;-56
2022/04/24 02:20:54;;;;;;;0.30;0.20;;;;;;;12.92;63.49;98401.09;5071686;28;20951;-54
2022/04/24 02:23:21;;;;;;;0.30;0.20;;;;;;;12.92;63.41;98402.91;5066276;28;20940;-55
2022/04/24 02:25:48;;;;;;;0.30;0.20;;;;;;;13.04;63.28;98396.72;5068460;28;20456;-54
2022/04/24 02:28:14;;;;;;;0.93;0.93;;;;;;;13.02;62.73;98406.66;5062831;28;20491;-55
2022/04/24 02:30:41;;;;;;;1.07;1.07;;;;;;;13.12;62.73;98410.38;5069351;28;20525;-55
2022/04/24 02:33:09;;;;;;;3.13;0.67;;;;;;;13.08;62.56;98406.22;5070382;28;20544;-55
2022/04/24 02:35:35;;;;;;;0.30;0.20;;;;;;;13.03;61.94;98398.53;5070072;28;20453;-55
2022/04/24 02:38:02;;;;;;;0.30;0.20;;;;;;;13.23;61.59;98397.16;5061580;28;20509;-55
2022/04/24 02:40:29;;;;;;;0.30;0.20;;;;;;;13.20;61.33;98401.88;5072114;28;20503;-55
2022/04/24 02:42:55;;;;;;;0.50;0.50;;;;;;;13.04;62.31;98394.91;5045391;28;20493;-55
2022/04/24 02:45:22;;;;;;;0.30;0.20;;;;;;;13.08;62.18;98402.69;5069909;28;20449;-55
2022/04/24 02:47:49;;;;;;;0.67;0.67;;;;;;;12.93;62.44;98401.94;5072053;28;20466;-54
2022/04/24 02:50:16;;;;;;;0.40;0.30;;;;;;;13.02;63.27;98396.84;5071611;28;20986;-55
2022/04/24 02:52:53;;;;;;;0.80;0.80;;;;;;;13.02;62.84;98398.66;5060670;28;20546;-55
2022/04/24 02:55:20;;;;;;;0.30;0.20;;;;;;;13.04;62.76;98397.56;5040711;28;20867;-55
2022/04/24 02:57:48;;;;;;;0.30;0.20;;;;;;;13.06;62.78;98394.78;5065510;28;20478;-55
2022/04/24 03:00:22;;;;;;;0.30;0.30;;;;;;;12.98;62.03;98405.13;5071955;28;20471;-55
2022/04/24 03:02:50;;;;;;;0.40;0.30;;;;;;;12.92;62.93;98403.75;5060015;28;20446;-55
2022/04/24 03:05:20;;;;;;;0.30;0.20;;;;;;;13.23;62.69;98409.66;5050009;28;20972;-55
2022/04/24 03:07:47;;;;;;;0.30;0.20;;;;;;;13.34;62.20;98404.44;5064723;28;20994;-55
2022/04/24 03:10:15;;;;;;;0.97;0.87;;;;;;;13.15;62.13;98407.47;5071570;28;20531;-55
2022/04/24 03:12:42;;;;;;;0.30;0.30;;;;;;;13.46;61.91;98408.91;5071849;28;20446;-55
2022/04/24 03:15:10;;;;;;;0.30;0.20;;;;;;;13.17;62.69;98408.25;5064031;28;20856;-55
2022/04/24 03:17:37;;;;;;;0.30;0.20;;;;;;;13.02;63.04;98407.50;5057864;28;20497;-55
2022/04/24 03:20:06;;;;;;;2.63;0.80;;;;;;;13.16;62.55;98409.22;5071463;28;20442;-55
2022/04/24 03:22:33;;;;;;;0.30;0.20;;;;;;;13.17;62.71;98410.91;5070496;28;20453;-55
2022/04/24 03:25:05;;;;;;;0.30;0.20;;;;;;;13.37;62.10;98404.22;5060516;28;20507;-55
2022/04/24 03:27:32;;;;;;;0.33;0.27;;;;;;;13.25;62.90;98405.91;5055657;28;20527;-55
2022/04/24 03:29:59;;;;;;;0.30;0.20;;;;;;;13.25;62.99;98400.59;5071202;28;20481;-55
2022/04/24 03:32:29;;;;;;;0.30;0.20;;;;;;;13.36;63.31;98399.84;5057783;28;20877;-55
2022/04/24 03:34:56;;;;;;;0.30;0.20;;;;;;;13.41;63.17;98404.84;5048796;28;20456;-55
2022/04/24 03:37:23;;;;;;;0.30;0.20;;;;;;;13.22;64.27;98407.97;5069695;28;20466;-55
2022/04/24 03:39:49;;;;;;;0.30;0.20;;;;;;;13.19;64.68;98413.50;5071527;28;20507;-55
2022/04/24 03:42:16;;;;;;;0.30;0.20;;;;;;;13.12;65.00;98413.03;5060882;28;20454;-55
2022/04/24 03:44:42;;;;;;;0.30;0.20;;;;;;;13.07;64.91;98428.50;5073683;28;20446;-55
2022/04/24 03:47:09;;;;;;;0.40;0.30;;;;;;;13.29;64.63;98426.13;5074777;28;20840;-55
2022/04/24 03:49:36;;;;;;;0.50;0.50;;;;;;;13.00;65.43;98436.06;5074845;28;20457;-56
2022/04/24 03:52:03;;;;;;;0.30;0.20;;;;;;;13.04;65.89;98439.41;5074677;28;20446;-54
2022/04/24 03:54:30;;;;;;;0.53;0.53;;;;;;;13.08;66.32;98443.56;5063026;28;20489;-55
2022/04/24 03:56:57;;;;;;;0.30;0.20;;;;;;;12.93;66.63;98447.28;5062051;28;20477;-55
2022/04/24 03:59:23;;;;;;;0.30;0.20;;;;;;;12.85;69.32;98449.59;5074579;28;20446;-54
2022/04/24 04:01:50;;;;;;;0.30;0.20;;;;;;;12.80;69.37;98446.38;5068789;28;20532;-56
2022/04/24 04:04:17;;;;;;;0.60;0.60;;;;;;;12.93;70.53;98455.28;5060328;28;20457;-54
2022/04/24 04:06:43;;;;;;;0.30;0.20;;;;;;;12.87;69.60;98451.19;5074548;28;20938;-55
2022/04/24 04:09:10;;;;;;;0.30;0.20;;;;;;;12.73;71.46;98453.94;5074168;28;20889;-55
2022/04/24 04:11:37;;;;;;;0.30;0.20;;;;;;;12.66;71.51;98460.63;5074573;28;20492;-55
2022/04/24 04:14:04;;;;;;;0.30;0.30;;;;;;;12.58;73.41;98458.47;5067618;28;20872;-55
2022/04/24 04:16:31;;;;;;;0.30;0.20;;;;;;;12.66;74.57;98466.81;5065286;28;20462;-55
2022/04/24 04:18:57;;;;;;;0.30;0.20;;;;;;;12.54;74.92;98464.13;5063734;28;20446;-55
2022/04/24 04:21:24;;;;;;;0.30;0.20;;;;;;;12.56;75.39;98464.88;5067017;28;20525;-55
2022/04/24 04:23:51;;;;;;;0.77;0.67;;;;;;;12.46;75.82;98477.94;5054389;28;20459;-54
2022/04/24 04:26:17;;;;;;;0.30;0.20;;;;;;;12.46;77.14;98478.78;5074232;28;20449;-57
2022/04/24 04:28:45;;;;;;;0.30;0.20;;;;;;;12.52;77.07;98477.53;5064181;28;20854;-55
2022/04/24 04:31:13;;;;;;;0.30;0.20;;;;;;;12.54;74.58;98488.97;5074129;28;20486;-55
2022/04/24 04:33:40;;;;;;;0.47;0.47;;;;;;;12.36;78.40;98484.84;5072067;28;20529;-55
2022/04/24 04:36:08;;;;;;;0.30;0.20;;;;;;;12.38;78.23;98494.44;5072860;28;20450;-55
2022/04/24 04:38:34;;;;;;;0.30;0.20;;;;;;;12.33;76.90;98490.34;5074070;28;20481;-54
2022/04/24 04:41:01;;;;;;;0.40;0.30;;;;;;;12.30;78.39;98495.88;5057578;28;20450;-55
2022/04/24 04:43:29;;;;;;;0.60;0.60;;;;;;;12.23;79.67;98499.91;5071173;28;20476;-54
2022/04/24 04:45:55;;;;;;;0.30;0.20;;;;;;;12.30;78.50;98503.88;5064023;28;20446;-55
2022/04/24 04:48:22;;;;;;;0.30;0.20;;;;;;;12.32;78.81;98500.16;5073785;28;21049;-54
2022/04/24 04:50:49;;;;;;;0.30;0.20;;;;;;;12.36;80.19;98504.34;5074061;28;20579;-55
2022/04/24 04:53:16;;;;;;;0.30;0.20;;;;;;;12.34;80.25;98511.59;5060388;28;20499;-55
2022/04/24 04:55:42;;;;;;;0.30;0.20;;;;;;;12.29;81.24;98513.66;5044319;28;20548;-55
2022/04/24 04:58:09;;;;;;;0.30;0.20;;;;;;;12.25;80.22;98508.66;5070487;28;20901;-55
2022/04/24 05:00:35;;;;;;;0.30;0.20;;;;;;;12.25;79.78;98509.50;5072485;28;20935;-54
2022/04/24 05:03:02;;;;;;;0.30;0.20;;;;;;;12.19;81.01;98503.69;5061818;28;21014;-55
2022/04/24 05:05:29;;;;;;;0.60;0.60;;;;;;;12.21;81.38;98515.13;5065925;28;20951;-54
2022/04/24 05:07:55;;;;;;;0.30;0.20;;;;;;;12.31;81.74;98510.91;5048445;28;20523;-55
2022/04/24 05:10:22;;;;;;;0.30;0.20;;;;;;;12.34;80.64;98511.59;5073299;28;20567;-55
2022/04/24 05:12:49;;;;;;;0.30;0.20;;;;;;;12.25;80.34;98505.97;5061708;28;20499;-55
2022/04/24 05:15:16;;;;;;;1.43;0.57;;;;;;;12.27;81.23;98506.72;5068723;28;20505;-55
2022/04/24 05:17:44;;;;;;;0.30;0.20;;;;;;;12.25;82.38;98511.31;5052738;28;20474;-54
2022/04/24 05:20:11;;;;;;;0.30;0.30;;;;;;;12.32;82.11;98501.94;5068559;28;20449;-54
2022/04/24 05:22:39;;;;;;;0.30;0.20;;;;;;;12.37;83.17;98505.19;5061655;28;20460;-54
2022/04/24 05:25:09;;;;;;;0.30;0.20;;;;;;;12.37;81.60;98500.72;5063538;28;20458;-54
2022/04/24 05:27:37;;;;;;;0.30;0.20;;;;;;;12.38;81.19;98499.75;5072961;28;20470;-54
2022/04/24 05:30:05;;;;;;;0.37;0.30;;;;;;;12.43;81.27;98497.66;5073069;28;20499;-55
2022/04/24 05:32:47;;;;;;;0.30;0.20;;;;;;;12.42;77.00;98495.94;5066184;28;20460;-54
2022/04/24 05:35:14;;;;;;;0.30;0.20;;;;;;;12.61;78.57;98500.06;5045982;28;20962;-55
2022/04/24 05:37:41;;;;;;;0.30;0.20;;;;;;;12.59;76.44;98502.81;5066570;28;20482;-54
2022/04/24 05:40:08;;;;;;;0.30;0.20;;;;;;;12.70;75.91;98496.78;5058124;28;20476;-56
2022/04/24 05:42:44;;;;;;;0.30;0.20;;;;;;;12.74;75.21;98495.63;5050777;28;20451;-56
2022/04/24 05:45:14;;;;;;;0.63;0.63;;;;;;;12.91;74.38;98502.53;5068483;28;20515;-56
2022/04/24 05:47:43;;;;;;;0.30;0.20;;;;;;;13.06;73.36;98504.16;5073046;28;20469;-56
2022/04/24 05:50:09;;;;;;;0.30;0.30;;;;;;;13.32;73.03;98508.63;5059290;28;20453;-56
2022/04/24 05:52:36;;;;;;;3.27;1.40;;;;;;;13.23;72.94;98509.22;5052302;28;20455;-56
2022/04/24 05:55:03;;;;;;;0.30;0.20;;;;;;;13.52;71.88;98503.72;5052409;28;20478;-56
2022/04/24 05:57:29;;;;;;;0.43;0.43;;;;;;;13.43;70.91;98505.22;5052504;28;20547;-56
2022/04/24 05:59:57;;;;;;;0.30;0.20;;;;;;;13.49;70.60;98498.59;5059570;28;20599;-57
2022/04/24 06:02:25;;;;;;;0.40;0.30;;;;;;;13.49;70.15;98494.09;5046503;28;20455;-56
2022/04/24 06:04:54;;;;;;;0.30;0.20;;;;;;;13.38;70.82;98504.66;5064762;28;20442;-56
2022/04/24 06:07:23;;;;;;;3.17;2.43;;;;;;;13.48;70.63;98497.75;5063129;28;20515;-57
2022/04/24 06:09:50;;;;;;;0.43;0.43;;;;;;;13.63;71.59;98503.81;5065239;28;20485;-57
2022/04/24 06:12:17;;;;;;;0.93;0.57;;;;;;;13.44;72.52;98504.25;5066220;28;20469;-56
2022/04/24 06:14:44;;;;;;;0.30;0.20;;;;;;;13.36;73.50;98503.91;5071842;28;21012;-56
2022/04/24 06:17:10;;;;;;;0.40;0.30;;;;;;;13.35;72.95;98512.88;5071945;28;20501;-56
2022/04/24 06:19:37;;;;;;;0.30;0.20;;;;;;;13.34;73.95;98514.69;5060773;28;20475;-57
2022/04/24 06:22:04;;;;;;;0.30;0.30;;;;;;;13.34;74.51;98508.50;5053396;28;20466;-57
2022/04/24 06:24:31;;;;;;;0.40;0.30;;;;;;;13.31;74.97;98506.91;5067563;28;20485;-56
2022/04/24 06:26:57;;;;;;;0.47;0.47;;;;;;;13.26;75.28;98514.34;5071933;28;20499;-56
2022/04/24 06:29:25;;;;;;;0.30;0.20;;;;;;;13.31;75.10;98506.91;5063461;28;21003;-56
2022/04/24 06:31:52;;;;;;;0.30;0.20;;;;;;;13.32;74.36;98510.44;5051951;28;20854;-57
2022/04/24 06:34:19;;;;;;;0.30;0.20;;;;;;;13.43;74.31;98507.88;5046807;28;20496;-57
2022/04/24 06:36:45;;;;;;;0.30;0.20;;;;;;;13.43;74.35;98507.88;5061911;28;20592;-56
2022/04/24 06:39:12;;;;;;;0.93;0.70;;;;;;;13.54;74.80;98512.47;5069945;28;20458;-57
2022/04/24 06:41:39;;;;;;;0.30;0.20;;;;;;;13.56;73.80;98505.19;5046594;28;20482;-57
2022/04/24 06:44:12;;;;;;;0.43;0.43;;;;;;;13.59;73.19;98513.00;5055098;28;20466;-57
2022/04/24 06:46:38;;;;;;;0.30;0.20;;;;;;;13.59;70.71;98511.19;5068351;28;20503;-57
2022/04/24 06:49:05;;;;;;;0.30;0.20;;;;;;;13.71;69.93;98511.31;5055064;28;20793;-58
2022/04/24 06:51:32;;;;;;;0.30;0.20;;;;;;;13.69;69.74;98521.22;5056135;28;20571;-56
2022/04/24 06:53:58;;;;;;;0.87;0.87;;;;;;;13.71;69.15;98522.84;5049700;28;20519;-57
2022/04/24 06:56:25;;;;;;;0.30;0.20;;;;;;;13.50;70.33;98521.66;5045131;28;20451;-56
2022/04/24 06:58:52;;;;;;;0.37;0.30;;;;;;;13.26;70.55;98518.84;5062059;28;20523;-56
2022/04/24 07:01:19;;;;;;;0.30;0.20;;;;;;;13.16;70.27;98523.06;5069044;28;20943;-56
2022/04/24 07:03:46;;;;;;;0.53;0.53;;;;;;;13.18;71.01;98530.06;5061203;28;20488;-56
2022/04/24 07:06:13;;;;;;;0.30;0.20;;;;;;;13.35;70.68;98526.22;5051827;28;20515;-56
2022/04/24 07:08:39;;;;;;;1.20;1.17;;;;;;;13.43;70.65;98525.69;5066316;28;20489;-56
2022/04/24 07:11:06;;;;;;;0.30;0.30;;;;;;;13.58;70.75;98522.84;5055504;28;20527;-56
2022/04/24 07:13:33;;;;;;;0.30;0.20;;;;;;;13.51;70.83;98531.38;5071752;28;20503;-57
2022/04/24 07:15:59;;;;;;;0.30;0.20;;;;;;;13.55;70.15;98524.84;5061555;28;20450;-56
2022/04/24 07:18:28;;;;;;;0.40;0.40;;;;;;;13.53;71.31;98527.63;5075384;28;20473;-56
2022/04/24 07:20:55;;;;;;;0.30;0.20;;;;;;;13.66;71.33;98527.63;5049453;28;20445;-56
2022/04/24 07:23:22;;;;;;;0.30;0.20;;;;;;;13.63;71.42;98536.72;5064422;28;20446;-56
2022/04/24 07:25:49;;;;;;;0.40;0.30;;;;;;;13.87;69.03;98535.97;5069589;28;20442;-56
2022/04/24 07:28:19;;;;;;;0.30;0.30;;;;;;;13.47;70.52;98529.88;5075091;28;20473;-57
2022/04/24 07:30:46;;;;;;;0.30;0.20;;;;;;;13.56;71.21;98531.91;5075301;28;20454;-57
2022/04/24 07:33:13;;;;;;;0.30;0.20;;;;;;;13.68;70.46;98525.72;5075309;28;20937;-56
2022/04/24 07:35:40;;;;;;;0.30;0.20;;;;;;;13.53;70.50;98526.78;5075058;28;20864;-56
2022/04/24 07:38:08;;;;;;;4.73;0.80;;;;;;;13.26;70.94;98529.50;5062348;28;20466;-57
2022/04/24 07:40:36;;;;;;;0.97;0.97;;;;;;;13.09;71.60;98527.97;5040399;28;20451;-56
2022/04/24 07:43:05;;;;;;;0.30;0.20;;;;;;;13.29;70.63;98530.19;5048670;28;20451;-56
2022/04/24 07:45:40;;;;;;;0.60;0.60;;;;;;;13.38;70.65;98530.50;5057995;28;20503;-56
2022/04/24 07:48:09;;;;;;;0.30;0.20;;;;;;;13.25;71.54;98536.66;5057284;28;21027;-56
2022/04/24 07:50:40;;;;;;;0.30;0.20;;;;;;;13.29;71.70;98543.53;5070479;28;20431;-56
2022/04/24 07:53:08;;;;;;;3.93;0.80;;;;;;;13.09;72.13;98533.28;5055583;28;20450;-57
2022/04/24 07:55:35;;;;;;;0.40;0.40;;;;;;;13.19;72.14;98542.44;5065312;28;20443;-56
2022/04/24 07:58:03;;;;;;;0.30;0.20;;;;;;;13.34;72.17;98553.88;5055234;28;20535;-56
2022/04/24 08:00:31;;;;;;;0.40;0.30;;;;;;;13.33;72.82;98554.84;5051358;28;20507;-56
2022/04/24 08:03:00;;;;;;;0.30;0.20;;;;;;;13.36;72.68;98559.97;5059876;28;20454;-56
2022/04/24 08:05:28;;;;;;;0.37;0.30;;;;;;;13.32;71.95;98556.66;5068712;28;20454;-56
2022/04/24 08:07:57;;;;;;;1.50;0.70;;;;;;;13.23;72.84;98543.91;5072163;28;20966;-56
2022/04/24 08:10:26;;;;;;;0.30;0.20;;;;;;;13.55;71.59;98554.22;5066443;28;20484;-56
2022/04/24 08:12:53;;;;;;;0.40;0.30;;;;;;;13.09;72.58;98557.31;5071475;28;20485;-56
2022/04/24 08:15:20;;;;;;;0.50;0.50;;;;;;;13.20;72.81;98561.97;5066602;28;20453;-56
2022/04/24 08:17:46;;;;;;;0.30;0.20;;;;;;;13.14;72.47;98563.16;5065144;28;20561;-55
2022/04/24 08:20:14;;;;;;;1.73;1.73;;;;;;;13.31;72.85;98562.94;5055646;28;20458;-56
2022/04/24 08:22:47;;;;;;;2.43;0.80;;;;;;;13.37;71.89;98564.34;5059620;28;20453;-57
2022/04/24 08:25:17;;;;;;;0.47;0.47;;;;;;;13.22;73.04;98570.72;5054524;28;20446;-57
2022/04/24 08:27:45;;;;;;;9.33;0.83;;;;;;;13.21;73.70;98569.84;5065817;28;20523;-56
2022/04/24 08:30:13;;;;;;;0.30;0.20;;;;;;;13.21;73.13;98569.84;5046201;28;21026;-57
2022/04/24 08:32:41;;;;;;;0.30;0.20;;;;;;;13.37;73.64;98575.00;5074384;28;20489;-56
2022/04/24 08:35:09;;;;;;;1.17;1.17;;;;;;;13.55;73.79;98572.91;5072730;28;20981;-56
2022/04/24 08:37:37;;;;;;;0.40;0.30;;;;;;;13.42;74.32;98577.34;5060091;28;20527;-56
2022/04/24 08:40:05;;;;;;;0.40;0.40;;;;;;;13.48;73.62;98579.63;5069343;28;20813;-56
2022/04/24 08:42:33;;;;;;;0.37;0.30;;;;;;;13.34;74.60;98576.09;5070708;28;20450;-56
2022/04/24 08:45:00;;;;;;;0.30;0.30;;;;;;;13.37;74.85;98579.50;5073350;28;20446;-56
2022/04/24 08:47:29;;;;;;;0.30;0.20;;;;;;;13.42;75.00;98588.03;5062749;28;20562;-56
2022/04/24 08:49:57;;;;;;;0.30;0.20;;;;;;;13.58;74.52;98586.91;5073924;28;20506;-56
2022/04/24 08:52:25;;;;;;;0.30;0.20;;;;;;;13.55;73.67;98591.59;5066694;28;20483;-56
2022/04/24 08:54:52;;;;;;;0.30;0.20;;;;;;;13.40;73.97;98588.13;5055713;28;20473;-56
2022/04/24 08:57:20;;;;;;;0.50;0.50;;;;;;;13.44;74.12;98592.34;5063939;28;20477;-57
2022/04/24 08:59:47;;;;;;;0.30;0.20;;;;;;;13.27;75.05;98581.91;5058924;28;20529;-56
2022/04/24 09:02:34;;;;;;;1.10;0.60;;;;;;;13.25;74.23;98583.84;5048444;28;20980;-57
2022/04/24 09:05:03;;;;;;;0.63;0.63;;;;;;;13.46;74.83;98585.06;5047245;28;20485;-56
2022/04/24 09:07:33;;;;;;;0.30;0.20;;;;;;;13.57;73.11;98579.00;5068413;28;20510;-56
2022/04/24 09:10:09;;;;;;;0.30;0.20;;;;;;;13.65;73.26;98582.00;5060277;28;20454;-56
2022/04/24 09:12:35;;;;;;;1.03;1.03;;;;;;;13.71;73.67;98581.59;5060244;28;20528;-56
2022/04/24 09:15:02;;;;;;;2.10;1.73;;;;;;;13.88;73.79;98575.94;5069523;28;20462;-56
2022/04/24 09:17:32;;;;;;;0.30;0.20;;;;;;;13.82;73.19;98576.34;5059090;28;20524;-56
2022/04/24 09:20:01;;;;;;;0.33;0.30;;;;;;;13.93;72.97;98579.13;5052462;28;20815;-57
2022/04/24 09:22:27;;;;;;;1.23;1.23;;;;;;;14.08;71.83;98579.88;5073529;28;20449;-57
2022/04/24 09:24:56;;;;;;;0.40;0.30;;;;;;;13.90;71.60;98579.34;5049359;28;20455;-57
2022/04/24 09:27:28;;;;;;;1.47;1.30;;;;;;;14.14;71.60;98582.13;5040877;28;20525;-56
2022/04/24 09:30:00;;;;;;;0.30;0.20;;;;;;;14.10;70.69;98579.75;5057268;28;20490;-56
2022/04/24 09:32:29;;;;;;;0.80;0.80;;;;;;;14.28;70.61;98570.44;5065783;28;20487;-56
2022/04/24 09:34:56;;;;;;;9.63;2.63;;;;;;;14.56;70.62;98577.38;5048372;28;20447;-56
2022/04/24 09:37:24;;;;;;;0.40;0.30;;;;;;;14.63;69.08;98583.13;5062446;28;20529;-56
2022/04/24 09:39:52;;;;;;;0.30;0.30;;;;;;;14.97;68.02;98586.88;5048734;28;20461;-57
2022/04/24 09:42:20;;;;;;;0.40;0.40;;;;;;;14.98;68.09;98577.88;5049798;28;20444;-56
2022/04/24 09:44:51;;;;;;;0.40;0.30;;;;;;;15.08;67.18;98581.59;5048085;28;20972;-57
2022/04/24 09:47:38;;;;;;;0.30;0.20;;;;;;;14.92;67.63;98584.50;5051322;28;20558;-56
2022/04/24 09:50:10;;;;;;;0.73;0.63;;;;;;;15.02;69.04;98579.34;5061667;28;20951;-56
2022/04/24 09:52:45;;;;;;;0.53;0.53;;;;;;;15.28;67.50;98585.44;5054849;28;20474;-56
2022/04/24 09:55:14;;;;;;;0.40;0.40;;;;;;;15.18;65.66;98589.75;5051519;28;20492;-56
2022/04/24 09:57:41;;;;;;;0.30;0.20;;;;;;;15.39;65.37;98580.13;5065417;28;20488;-57
2022/04/24 10:00:09;;;;;;;0.73;0.70;;;;;;;15.51;66.02;98581.03;5070149;28;20458;-57
2022/04/24 10:02:36;;;;;;;0.30;0.20;;;;;;;15.59;64.80;98583.94;5060309;28;20474;-57
2022/04/24 10:05:06;;;;;;;0.50;0.40;;;;;;;15.95;65.63;98585.66;5059673;28;20458;-57
2022/04/24 10:07:33;;;;;;;0.30;0.20;;;;;;;16.20;64.07;98593.50;5066833;28;20582;-56
2022/04/24 10:10:00;;;;;;;0.40;0.40;;;;;;;16.02;63.54;98589.53;5069595;28;20893;-57
2022/04/24 10:12:27;;;;;;;1.07;1.07;;;;;;;16.40;62.99;98594.56;5070274;28;21052;-57
2022/04/24 10:15:12;;;;;;;0.30;0.20;;;;;;;16.45;62.02;98589.72;5060138;28;20449;-57
2022/04/24 10:18:00;;;;;;;0.30;0.20;;;;;;;15.94;62.44;98597.34;5061369;28;20565;-57
2022/04/24 10:20:30;;;;;;;0.40;0.40;;;;;;;16.18;63.51;98595.44;5058754;28;20447;-57
2022/04/24 10:22:59;;;;;;;0.50;0.50;;;;;;;16.13;62.53;98594.94;5072344;28;20511;-56
2022/04/24 10:25:42;;;;;;;0.50;0.50;;;;;;;16.15;62.25;98598.34;5063081;28;20446;-57
2022/04/24 10:28:15;;;;;;;0.60;0.60;;;;;;;16.49;61.28;98598.38;5069928;28;20464;-57
2022/04/24 10:30:47;;;;;;;0.60;0.60;;;;;;;16.45;61.13;98600.44;5062254;28;20446;-57
2022/04/24 10:33:18;;;;;;;0.43;0.43;;;;;;;16.70;62.21;98599.34;5071670;28;20995;-58
2022/04/24 10:35:59;;;;;;;0.50;0.50;;;;;;;16.67;61.15;98593.34;5051749;28;20568;-57
2022/04/24 10:38:28;;;;;;;0.40;0.30;;;;;;;16.28;62.95;98600.91;5067899;28;20509;-57
2022/04/24 10:41:06;;;;;;;2.93;2.83;;;;;;;15.88;65.25;98604.03;5067461;28;20937;-56
2022/04/24 10:43:40;;;;;;;0.30;0.20;;;;;;;16.14;64.54;98602.00;5069606;28;20499;-57
2022/04/24 10:46:30;;;;;;;0.67;0.67;;;;;;;16.20;64.35;98606.91;5064269;28;20450;-57
2022/04/24 10:49:11;;;;;;;0.40;0.40;;;;;;;16.49;63.38;98598.38;5037296;28;20531;-57
2022/04/24 10:51:41;;;;;;;0.67;0.67;;;;;;;16.42;62.65;98603.34;5061051;28;20789;-56
2022/04/24 10:54:13;;;;;;;1.47;1.30;;;;;;;16.34;61.59;98607.63;5053755;28;20488;-57
2022/04/24 10:56:53;;;;;;;0.70;0.70;;;;;;;16.45;61.54;98613.00;5054923;28;20442;-58
2022/04/24 10:59:22;;;;;;;0.90;0.90;;;;;;;16.34;61.46;98604.94;5046734;28;20871;-57
2022/04/24 11:01:51;;;;;;;0.40;0.33;;;;;;;16.20;62.46;98608.72;5066044;28;20514;-57
2022/04/24 11:04:19;;;;;;;0.43;0.43;;;;;;;16.63;61.75;98616.88;5058802;28;20480;-57
2022/04/24 11:07:00;;;;;;;0.77;0.77;;;;;;;16.11;62.55;98612.13;5071856;28;20485;-56
2022/04/24 11:09:32;;;;;;;0.33;0.23;;;;;;;16.19;62.43;98613.22;5070222;28;20450;-56
2022/04/24 11:12:07;;;;;;;0.30;0.20;;;;;;;16.70;61.70;98617.25;5070360;28;20485;-57
2022/04/24 11:14:35;;;;;;;0.70;0.67;;;;;;;16.69;62.55;98616.41;5063716;28;20463;-57
2022/04/24 11:17:06;;;;;;;0.50;0.50;;;;;;;16.80;62.91;98615.56;5064329;28;20470;-57
2022/04/24 11:19:35;;;;;;;0.77;0.77;;;;;;;16.64;61.69;98618.59;5044272;28;20462;-56
2022/04/24 11:22:07;;;;;;;0.50;0.50;;;;;;;16.39;63.02;98618.84;5071694;28;20453;-57
2022/04/24 11:24:37;;;;;;;0.43;0.43;;;;;;;16.72;62.07;98615.31;5061464;28;20451;-57
2022/04/24 11:27:15;;;;;;;0.30;0.20;;;;;;;16.56;61.26;98615.66;5052596;28;20475;-57
2022/04/24 11:29:45;;;;;;;1.60;0.90;;;;;;;16.15;62.85;98624.28;5065220;28;20508;-56
2022/04/24 11:32:13;;;;;;;0.80;0.73;;;;;;;16.47;63.29;98622.63;5068729;28;20485;-56
2022/04/24 11:34:40;;;;;;;0.50;0.50;;;;;;;16.24;62.49;98629.81;5071755;28;20482;-57
2022/04/24 11:37:09;;;;;;;0.50;0.40;;;;;;;16.35;62.60;98626.28;5060055;28;20528;-57
2022/04/24 11:39:38;;;;;;;0.33;0.27;;;;;;;16.32;63.23;98629.22;5069117;28;20449;-56